Pagrindinis puslapis
METAR-TAF:

METAR-TAF

Oro uostai :

Venice, Florida, Jungtinės Amerikos Valstijos

platuma: 27-04-18N, ilguma: 082-26-25W, Aukštis: 5 m

Dabartinis oras

Ataskaita buvo paskelbta 5 minutes, ne 20:15 UTC
Vėjas 8 kt iš Pietų/Pietvakarių
Temperatūra 26°C
Drėgmė 74%
Slėgis 1017 hPa
Matomumas: 14.5 km
Su prošvaistėmis ne aukštis 4900 ft
Su prošvaistėmis ne aukštis 5500 ft

METAR: KVNC 162015Z AUTO 20008KT 9SM BKN049 BKN055 26/21 A3004 RMK AO2

Laikas: 15:20 (20:20 UTC)


TAF: trūkstamas

Orai ataskaitas ir orų prognozės (METAR, TAF).

turimą stotys yra geltonos ir raudonos taškus žemėlapyje.

Perkelti pele per norėdami pamatyti stoties vardą.

Tada spustelėkite, norėdami matyti oro stebėjimo ir prognozės.

Norėdami pakeisti žemėlapį: spustelėkite ant žalios mygtukų su juodo kryžiaus žemyn,; žalią mygtuką su brūkšneliu, jei norite nutolinti; arba žalių rodyklių gretimoms žemėlapius.


METAR-TAF: